Time;durP1;ratioP1;P1;durP2;ratioP2;P2;SDS_P1;SDS_P2;PMS_P1;PMS_P2;Temp;Humidity;BMP_temperature;BMP_pressure;BME280_temperature;BME280_humidity;BME280_pressure;Samples;Min_cycle;Max_cycle;Signal;HPM_P1;HPM_P2
2023/05/16 00:00:17;;;;;;;1999.90;652.23;;;;;;;8.95;100.00;100501.38;5046568;28;20168;-74
2023/05/16 00:02:43;;;;;;;1999.90;753.03;;;;;;;8.96;100.00;100505.69;5064796;28;20445;-74
2023/05/16 00:05:13;;;;;;;1999.90;922.63;;;;;;;8.92;100.00;100498.16;5060971;28;20441;-74
2023/05/16 00:07:42;;;;;;;1999.90;658.30;;;;;;;8.80;100.00;100493.13;5048212;28;20044;-74
2023/05/16 00:10:08;;;;;;;1999.90;526.97;;;;;;;8.81;100.00;100516.09;5045197;28;20228;-74
2023/05/16 00:12:35;;;;;;;1999.90;632.83;;;;;;;8.96;100.00;100528.81;5047845;28;20028;-74
2023/05/16 00:17:29;;;;;;;1999.90;775.17;;;;;;;8.87;100.00;100504.81;5032652;28;20104;-72
2023/05/16 00:19:57;;;;;;;1999.90;770.90;;;;;;;8.82;100.00;100491.13;5022420;28;20029;-72
2023/05/16 00:22:25;;;;;;;1999.90;749.47;;;;;;;8.88;100.00;100506.47;5047326;28;20048;-73
2023/05/16 00:24:51;;;;;;;1999.90;738.70;;;;;;;8.77;100.00;100477.47;5052802;28;20025;-73
2023/05/16 00:27:16;;;;;;;1999.90;704.03;;;;;;;8.79;100.00;100482.63;5013451;28;20040;-73
2023/05/16 00:29:42;;;;;;;1999.90;668.00;;;;;;;8.82;100.00;100482.31;5049071;28;20040;-72
2023/05/16 00:32:07;;;;;;;1999.90;713.57;;;;;;;8.76;100.00;100474.97;5017108;28;20040;-73
2023/05/16 00:34:33;;;;;;;1999.90;680.65;;;;;;;8.69;100.00;100471.28;5017611;28;20123;-72
2023/05/16 00:36:59;;;;;;;1999.90;864.25;;;;;;;8.79;100.00;100478.13;5035961;28;20045;-71
2023/05/16 00:39:24;;;;;;;1999.90;645.83;;;;;;;8.79;100.00;100488.78;5028554;28;20083;-71
2023/05/16 00:41:50;;;;;;;1999.90;906.00;;;;;;;8.71;100.00;100478.09;5035657;28;20045;-73
2023/05/16 00:44:15;;;;;;;1999.90;625.47;;;;;;;8.83;100.00;100506.13;5037917;28;20104;-70
2023/05/16 00:46:41;;;;;;;1999.90;726.38;;;;;;;8.81;100.00;100497.47;5027713;28;20295;-72
2023/05/16 00:49:08;;;;;;;1999.90;725.67;;;;;;;8.71;100.00;100462.13;5017330;28;20114;-72
2023/05/16 00:51:35;;;;;;;1999.90;605.58;;;;;;;8.66;100.00;100459.09;5030270;28;20045;-71
2023/05/16 00:54:01;;;;;;;1999.90;674.78;;;;;;;8.59;100.00;100463.38;5047818;28;20475;-72
2023/05/16 00:56:27;;;;;;;1999.90;829.58;;;;;;;8.59;100.00;100488.19;5030535;28;20040;-71
2023/05/16 00:58:52;;;;;;;1999.90;591.97;;;;;;;8.50;100.00;100475.81;5028370;28;20206;-72
2023/05/16 01:01:20;;;;;;;1999.90;842.53;;;;;;;8.59;100.00;100500.63;5029242;28;20105;-72
2023/05/16 01:03:46;;;;;;;1999.90;766.40;;;;;;;8.62;100.00;100500.34;5047367;28;20072;-73
2023/05/16 01:06:11;;;;;;;1999.90;623.40;;;;;;;8.70;100.00;100515.50;5050826;28;20049;-71
2023/05/16 01:08:37;;;;;;;1999.90;647.08;;;;;;;8.69;100.00;100500.53;5029956;28;20578;-72
2023/05/16 01:11:27;;;;;;;1999.90;674.13;;;;;;;8.69;100.00;100490.72;5033274;28;20044;-75
2023/05/16 01:14:08;;;;;;;1999.90;649.03;;;;;;;8.61;100.00;100493.31;5042946;28;20546;-70
2023/05/16 01:16:45;;;;;;;1999.90;643.33;;;;;;;8.64;100.00;100493.03;5030442;28;20102;-73
2023/05/16 01:19:42;;;;;;;1999.90;794.58;;;;;;;8.75;100.00;100491.91;5027479;28;20032;-71
2023/05/16 01:22:30;;;;;;;1999.90;663.40;;;;;;;8.73;100.00;100502.72;5016548;28;20032;-71
2023/05/16 01:25:06;;;;;;;1999.90;588.67;;;;;;;8.79;100.00;100502.09;5015189;28;20030;-72
2023/05/16 01:27:33;;;;;;;1999.90;872.05;;;;;;;8.72;100.00;100477.09;5043552;28;20087;-72
2023/05/16 01:29:58;;;;;;;1999.90;639.35;;;;;;;8.91;100.00;100499.19;5033300;28;20032;-71
2023/05/16 01:32:24;;;;;;;1999.90;857.93;;;;;;;8.88;100.00;100477.19;5027642;28;20373;-72
2023/05/16 01:34:50;;;;;;;1999.90;541.40;;;;;;;8.84;100.00;100489.16;5030563;28;20031;-72
2023/05/16 01:37:35;;;;;;;1999.90;748.45;;;;;;;8.86;100.00;100497.81;5026934;28;20476;-72
2023/05/16 01:40:11;;;;;;;1999.90;711.80;;;;;;;8.88;100.00;100493.16;5018172;28;20029;-72
2023/05/16 01:42:43;;;;;;;1999.90;806.45;;;;;;;8.94;100.00;100496.19;5025422;28;20426;-72
2023/05/16 01:45:13;;;;;;;1999.90;666.42;;;;;;;8.96;100.00;100488.88;5010321;28;20479;-72
2023/05/16 01:47:42;;;;;;;1999.90;779.42;;;;;;;8.99;100.00;100485.91;5020806;28;20034;-72
2023/05/16 01:50:11;;;;;;;1999.90;661.42;;;;;;;8.98;100.00;100484.25;5019810;28;20028;-70
2023/05/16 01:52:50;;;;;;;1999.90;607.22;;;;;;;8.92;100.00;100471.53;5013646;28;20045;-72
2023/05/16 01:55:23;;;;;;;1999.90;751.25;;;;;;;8.96;100.00;100486.22;5024395;28;20383;-71
2023/05/16 01:57:50;;;;;;;1999.90;836.08;;;;;;;8.99;100.00;100484.09;5051468;28;20045;-72
2023/05/16 02:00:16;;;;;;;1999.90;805.42;;;;;;;9.01;100.00;100486.56;5031881;28;20104;-72
2023/05/16 02:02:41;;;;;;;1999.90;724.70;;;;;;;8.95;100.00;100480.06;5047565;28;20123;-72
2023/05/16 02:05:07;;;;;;;;;;;;;;;9.03;100.00;100513.88;5047985;28;20021;-71
2023/05/16 02:07:33;;;;;;;1508.13;358.58;;;;;;;8.86;100.00;100492.50;5049869;28;19928;-71
2023/05/16 02:09:58;;;;;;;1985.77;579.47;;;;;;;8.98;100.00;100505.53;5035256;28;20047;-71
2023/05/16 02:12:24;;;;;;;1999.90;629.80;;;;;;;9.04;100.00;100504.91;5035429;28;20073;-72
2023/05/16 02:14:49;;;;;;;1999.90;885.20;;;;;;;8.99;100.00;100508.06;5041454;28;20391;-72
2023/05/16 02:17:15;;;;;;;1999.90;634.42;;;;;;;8.99;100.00;100504.53;5020708;28;20399;-72
2023/05/16 02:19:41;;;;;;;1999.90;677.50;;;;;;;9.01;100.00;100514.06;5033781;28;20021;-72
2023/05/16 02:22:06;;;;;;;1999.90;628.87;;;;;;;9.04;100.00;100503.09;5032913;28;20175;-72
2023/05/16 02:24:32;;;;;;;1999.90;737.57;;;;;;;8.98;100.00;100489.56;5013664;28;20406;-72
2023/05/16 02:26:57;;;;;;;1999.90;629.13;;;;;;;9.01;100.00;100490.09;5052837;28;20152;-71
2023/05/16 02:29:23;;;;;;;1884.87;516.73;;;;;;;9.05;100.00;100485.28;5031528;28;20039;-70
2023/05/16 02:31:48;;;;;;;1999.90;616.13;;;;;;;9.11;100.00;100486.44;5017300;28;20041;-72
2023/05/16 02:34:14;;;;;;;1999.90;757.80;;;;;;;9.08;100.00;100474.28;5052097;28;20285;-70
2023/05/16 02:36:41;;;;;;;1999.90;718.80;;;;;;;9.07;100.00;100468.13;5030130;28;20032;-72
2023/05/16 02:39:08;;;;;;;1999.90;610.35;;;;;;;9.07;100.00;100446.00;5057631;28;20459;-72
2023/05/16 02:41:34;;;;;;;1999.90;812.88;;;;;;;9.04;100.00;100430.34;5051005;28;20045;-71
2023/05/16 02:43:59;;;;;;;1999.90;530.57;;;;;;;9.11;100.00;100436.72;5052862;28;20071;-72
2023/05/16 02:46:30;;;;;;;1999.90;418.27;;;;;;;9.17;100.00;100409.41;5036856;28;20048;-72
2023/05/16 02:48:55;;;;;;;1669.75;487.52;;;;;;;9.18;100.00;100388.97;5033262;28;20444;-72
2023/05/16 02:51:23;;;;;;;1003.15;239.48;;;;;;;9.11;100.00;100340.84;5032891;28;20111;-72
2023/05/16 02:53:49;;;;;;;1731.40;306.58;;;;;;;9.11;100.00;100297.38;5050485;28;20115;-71
2023/05/16 02:56:15;;;;;;;1824.13;371.08;;;;;;;9.16;100.00;100287.91;5029696;28;20447;-71
2023/05/16 02:58:41;;;;;;;405.98;123.55;;;;;;;9.21;100.00;100258.94;5050812;28;20029;-72
2023/05/16 03:01:07;;;;;;;164.73;87.50;;;;;;;9.20;100.00;100235.13;5032797;28;20033;-70
2023/05/16 03:03:34;;;;;;;403.42;115.28;;;;;;;9.22;100.00;100249.09;5032801;28;20130;-70
2023/05/16 03:06:01;;;;;;;1757.82;330.75;;;;;;;9.14;100.00;100246.47;5053921;28;20025;-72
2023/05/16 03:08:26;;;;;;;565.05;148.93;;;;;;;9.12;100.00;100249.28;5029355;28;20432;-72
2023/05/16 03:10:51;;;;;;;181.37;102.57;;;;;;;9.07;100.00;100251.59;5036903;28;20025;-72
2023/05/16 03:13:17;;;;;;;1673.80;279.57;;;;;;;9.12;100.00;100257.25;5030864;28;20602;-72
2023/05/16 03:15:43;;;;;;;1081.75;272.70;;;;;;;9.21;100.00;100282.09;5047172;28;20034;-72
2023/05/16 03:18:08;;;;;;;1393.93;377.93;;;;;;;9.24;100.00;100293.22;5032446;28;20488;-72
2023/05/16 03:20:34;;;;;;;449.17;209.87;;;;;;;9.32;100.00;100321.72;5053487;28;20547;-72
2023/05/16 03:22:59;;;;;;;329.80;147.87;;;;;;;9.29;100.00;100320.22;5020833;28;20450;-72
2023/05/16 03:25:25;;;;;;;1999.90;408.83;;;;;;;9.25;100.00;100324.22;5029828;28;20047;-72
2023/05/16 03:27:50;;;;;;;1508.75;401.17;;;;;;;9.17;100.00;100302.03;5049071;28;20036;-73
2023/05/16 03:30:18;;;;;;;1152.97;309.30;;;;;;;9.20;100.00;100331.88;5029119;28;20029;-72
2023/05/16 03:32:44;;;;;;;755.50;253.43;;;;;;;9.21;100.00;100325.53;5049683;28;20040;-72
2023/05/16 03:35:10;;;;;;;1093.47;211.40;;;;;;;9.19;100.00;100314.19;5038231;28;20013;-72
2023/05/16 03:37:36;;;;;;;1987.50;412.10;;;;;;;9.19;100.00;100284.06;5050094;28;20048;-72
2023/05/16 03:40:04;;;;;;;753.40;184.05;;;;;;;9.06;100.00;100276.56;5029078;28;20139;-72
2023/05/16 03:42:31;;;;;;;1777.50;321.33;;;;;;;9.04;100.00;100286.56;5045903;28;20144;-72
2023/05/16 03:44:56;;;;;;;1096.93;329.23;;;;;;;9.12;100.00;100309.69;5052938;28;20379;-72
2023/05/16 03:47:22;;;;;;;244.48;100.93;;;;;;;9.15;100.00;100318.19;5052981;28;20426;-72
2023/05/16 03:49:47;;;;;;;99.40;78.70;;;;;;;9.27;100.00;100340.00;5035142;28;20027;-70
2023/05/16 03:52:13;;;;;;;754.23;220.17;;;;;;;9.24;100.00;100335.84;5028245;28;20584;-71
2023/05/16 03:54:38;;;;;;;1999.90;564.75;;;;;;;9.18;100.00;100317.88;5028630;28;20021;-72
2023/05/16 03:57:04;;;;;;;688.53;258.50;;;;;;;9.18;100.00;100317.88;5031450;28;20039;-72
2023/05/16 03:59:30;;;;;;;1037.53;358.52;;;;;;;9.19;100.00;100327.53;5028200;28;20064;-71
2023/05/16 04:01:55;;;;;;;1306.90;427.43;;;;;;;9.24;100.00;100346.50;5049699;28;20033;-71
2023/05/16 04:04:20;;;;;;;538.40;164.70;;;;;;;9.23;100.00;100355.50;5028062;28;20337;-71
2023/05/16 04:06:46;;;;;;;1364.87;275.47;;;;;;;9.25;100.00;100332.19;5028018;28;20155;-73
2023/05/16 04:09:11;;;;;;;209.10;129.03;;;;;;;9.17;100.00;100312.69;5035726;28;20028;-71
2023/05/16 04:11:37;;;;;;;1739.70;331.67;;;;;;;9.24;100.00;100335.84;5053738;28;20036;-73
2023/05/16 04:14:03;;;;;;;1617.93;263.13;;;;;;;9.19;100.00;100338.16;5028372;28;20538;-76
2023/05/16 04:16:28;;;;;;;140.73;94.30;;;;;;;9.29;100.00;100354.84;5058316;28;20054;-72
2023/05/16 04:18:55;;;;;;;1473.37;247.57;;;;;;;9.15;100.00;100315.50;5031307;28;20284;-70
2023/05/16 04:21:20;;;;;;;822.80;228.90;;;;;;;9.11;100.00;100329.31;5014721;28;20025;-72
2023/05/16 04:23:46;;;;;;;1127.65;225.35;;;;;;;9.22;100.00;100361.81;5038325;28;20487;-70
2023/05/16 04:26:13;;;;;;;690.15;273.92;;;;;;;9.18;100.00;100352.50;5039010;28;20293;-71
2023/05/16 04:28:39;;;;;;;1317.85;388.75;;;;;;;9.23;100.00;100370.66;5028149;28;20083;-72
2023/05/16 04:31:05;;;;;;;1438.38;287.65;;;;;;;9.16;100.00;100337.69;5042690;28;20486;-70
2023/05/16 04:33:30;;;;;;;1438.72;323.63;;;;;;;9.26;100.00;100354.34;5031082;28;20056;-73
2023/05/16 04:35:57;;;;;;;896.97;229.97;;;;;;;9.22;100.00;100329.84;5030977;28;20395;-70
2023/05/16 04:38:23;;;;;;;1947.38;366.67;;;;;;;9.30;100.00;100308.56;5035688;28;20925;-77
2023/05/16 04:40:49;;;;;;;1195.68;242.85;;;;;;;9.33;100.00;100341.19;5034449;28;20080;-72
2023/05/16 04:43:15;;;;;;;1999.90;390.35;;;;;;;9.23;100.00;100334.19;5056619;28;20040;-70
2023/05/16 04:45:41;;;;;;;1999.90;357.47;;;;;;;9.21;100.00;100344.16;5043827;28;20024;-70
2023/05/16 04:48:07;;;;;;;;;;;;;;;9.26;100.00;100367.66;5049252;28;20282;-71
2023/05/16 04:50:32;;;;;;;454.92;177.77;;;;;;;9.17;100.00;100348.16;5045326;28;19919;-70
2023/05/16 04:53:00;;;;;;;447.77;181.52;;;;;;;9.26;100.00;100381.81;5039816;28;20202;-70
2023/05/16 04:55:26;;;;;;;1999.90;382.73;;;;;;;9.27;100.00;100409.28;5030150;28;20509;-73
2023/05/16 04:57:51;;;;;;;708.90;190.47;;;;;;;9.22;100.00;100360.97;5031023;28;20036;-70
2023/05/16 05:00:17;;;;;;;1167.67;303.33;;;;;;;9.21;100.00;100365.47;5027274;28;20480;-70
2023/05/16 05:02:42;;;;;;;1795.20;371.20;;;;;;;9.23;100.00;100370.66;5035469;28;20522;-75
2023/05/16 05:05:08;;;;;;;1314.22;310.20;;;;;;;9.19;100.00;100386.13;5065146;28;20082;-76
2023/05/16 05:07:33;;;;;;;791.90;193.02;;;;;;;9.36;100.00;100386.16;5048293;28;20044;-71
2023/05/16 05:09:59;;;;;;;1469.70;276.30;;;;;;;9.27;100.00;100348.84;5045118;28;20108;-72
2023/05/16 05:12:26;;;;;;;1488.70;234.23;;;;;;;9.24;100.00;100378.47;5045113;28;20041;-73
2023/05/16 05:14:51;;;;;;;517.83;204.95;;;;;;;9.41;100.00;100383.81;5039194;28;20025;-70
2023/05/16 05:17:17;;;;;;;1999.90;432.33;;;;;;;9.21;100.00;100349.50;5030298;28;20036;-74
2023/05/16 05:19:42;;;;;;;1999.90;448.43;;;;;;;9.24;100.00;100373.13;5045281;28;20047;-77
2023/05/16 05:22:08;;;;;;;1018.63;229.97;;;;;;;9.14;100.00;100356.47;5047696;28;20036;-71
2023/05/16 05:24:33;;;;;;;450.93;203.00;;;;;;;9.23;100.00;100418.59;5050833;28;20037;-71
2023/05/16 05:26:58;;;;;;;1147.37;280.60;;;;;;;9.25;100.00;100384.66;5032137;28;20124;-72
2023/05/16 05:29:24;;;;;;;1127.67;296.30;;;;;;;9.19;100.00;100311.53;5052201;28;20518;-71
2023/05/16 05:31:49;;;;;;;1999.90;653.93;;;;;;;9.15;100.00;100272.91;5030608;28;20029;-72
2023/05/16 05:34:15;;;;;;;176.93;50.10;;;;;;;9.24;100.00;100269.25;5045819;28;20096;-71
2023/05/16 05:36:40;;;;;;;707.53;209.43;;;;;;;9.18;100.00;100240.63;5027035;28;20148;-71
2023/05/16 05:39:05;;;;;;;1999.90;377.13;;;;;;;9.21;100.00;100197.69;5029699;28;20533;-72
2023/05/16 05:41:31;;;;;;;555.30;159.63;;;;;;;9.25;100.00;100134.25;5028646;28;20415;-71
2023/05/16 05:43:56;;;;;;;719.43;207.93;;;;;;;9.33;100.00;100136.91;5026320;28;20376;-72
2023/05/16 05:46:23;;;;;;;448.77;150.13;;;;;;;9.55;100.00;100154.00;5029654;28;20527;-72
2023/05/16 05:48:49;;;;;;;518.85;99.63;;;;;;;9.55;100.00;100074.03;5027269;28;20025;-71
2023/05/16 05:51:14;;;;;;;421.35;81.63;;;;;;;9.67;100.00;100085.19;5052504;28;20032;-71
2023/05/16 05:53:40;;;;;;;155.77;39.63;;;;;;;9.62;100.00;100028.88;5047210;28;20032;-72
2023/05/16 05:56:05;;;;;;;42.72;30.55;;;;;;;9.65;100.00;99965.41;5032851;28;20025;-71
2023/05/16 05:58:31;;;;;;;129.93;45.90;;;;;;;9.70;100.00;99885.75;5049097;28;20032;-71
2023/05/16 06:00:56;;;;;;;220.47;54.07;;;;;;;9.69;100.00;99854.78;5025521;28;20364;-71
2023/05/16 06:03:22;;;;;;;20.00;12.53;;;;;;;9.92;100.00;99897.41;5028976;28;20025;-71
2023/05/16 06:05:47;;;;;;;527.87;156.60;;;;;;;9.96;100.00;99764.56;5044224;28;20291;-71
2023/05/16 06:08:13;;;;;;;15.48;6.80;;;;;;;10.13;100.00;99762.53;5035438;28;20028;-73
2023/05/16 06:10:38;;;;;;;13.63;6.77;;;;;;;9.95;100.00;99648.28;5030835;28;20063;-71
2023/05/16 06:13:03;;;;;;;279.63;117.13;;;;;;;9.97;100.00;99627.56;5047529;28;20040;-70
2023/05/16 06:15:29;;;;;;;87.83;78.47;;;;;;;9.99;100.00;99518.06;5044740;28;20028;-71
2023/05/16 06:17:54;;;;;;;284.00;104.93;;;;;;;9.63;100.00;99391.78;5105203;22;20040;-83
2023/05/16 06:20:20;;;;;;;22.63;18.10;;;;;;;10.10;100.00;99509.56;5070960;28;20040;-82
2023/05/16 06:22:45;;;;;;;381.10;111.87;;;;;;;9.97;100.00;99430.25;5067471;28;20039;-82
2023/05/16 06:25:11;;;;;;;24.73;20.67;;;;;;;10.21;100.00;99532.22;5049334;28;20039;-83
2023/05/16 06:27:36;;;;;;;80.47;45.90;;;;;;;10.61;100.00;99481.94;5054357;28;20073;-83
2023/05/16 06:30:02;;;;;;;47.28;40.30;;;;;;;11.68;100.00;99313.06;5067924;28;20061;-81
2023/05/16 06:32:28;;;;;;;108.45;55.78;;;;;;;12.17;99.59;99056.88;5054150;28;20024;-84
2023/05/16 06:34:53;;;;;;;13.18;7.18;;;;;;;12.30;95.76;98885.56;5050743;28;20467;-84
2023/05/16 06:37:19;;;;;;;8.83;2.33;;;;;;;12.84;93.91;98937.56;5041163;28;20043;-83
2023/05/16 06:39:44;;;;;;;13.90;2.80;;;;;;;12.86;90.39;98760.59;5053951;28;20557;-84
2023/05/16 06:42:09;;;;;;;9.90;2.00;;;;;;;13.33;88.31;98760.00;5034291;28;20107;-82
2023/05/16 06:44:36;;;;;;;12.73;1.95;;;;;;;13.45;87.04;98764.34;5059819;28;20570;-83
2023/05/16 06:47:01;;;;;;;11.70;2.20;;;;;;;13.89;85.16;98727.31;5065591;28;20039;-83
2023/05/16 06:49:26;;;;;;;13.53;1.90;;;;;;;13.57;81.26;98393.59;5075613;28;20031;-84
2023/05/16 06:51:52;;;;;;;8.27;1.13;;;;;;;12.95;82.97;98547.66;5074663;28;20054;-83
2023/05/16 06:54:17;;;;;;;12.37;2.17;;;;;;;11.98;82.44;98414.94;5075527;28;20042;-85
2023/05/16 06:56:44;;;;;;;14.77;2.57;;;;;;;11.48;83.41;98454.47;5108687;28;20031;-85
2023/05/16 06:59:09;;;;;;;15.25;1.85;;;;;;;11.34;85.04;98678.19;5091347;28;20568;-84
2023/05/16 07:01:35;;;;;;;12.03;1.90;;;;;;;11.21;85.84;98764.56;5087959;28;20035;-83
2023/05/16 07:04:00;;;;;;;11.07;2.10;;;;;;;11.20;87.13;98896.50;5090537;28;20067;-84
2023/05/16 07:06:26;;;;;;;8.27;2.10;;;;;;;10.83;88.36;98938.91;5078275;28;20019;-83
2023/05/16 07:08:51;;;;;;;7.77;1.47;;;;;;;11.03;89.68;99108.94;5075975;28;20130;-83
2023/05/16 07:11:16;;;;;;;16.77;2.27;;;;;;;10.55;89.17;98985.31;5095111;28;20080;-84
2023/05/16 07:13:42;;;;;;;9.20;1.67;;;;;;;12.34;90.06;99506.78;5094893;28;20055;-84
2023/05/16 07:16:07;;;;;;;10.83;2.50;;;;;;;11.96;85.05;98935.84;5077929;28;20019;-83
2023/05/16 07:18:33;;;;;;;10.57;1.83;;;;;;;13.56;84.39;99261.44;5094253;28;20039;-83
2023/05/16 07:20:58;;;;;;;12.57;2.10;;;;;;;13.04;79.74;98660.63;5077418;28;20109;-84
2023/05/16 07:23:24;;;;;;;14.73;2.10;;;;;;;13.48;80.62;98951.50;5111074;28;20047;-83
2023/05/16 07:25:49;;;;;;;10.45;2.28;;;;;;;12.97;79.90;98785.78;5094539;28;20030;-85
2023/05/16 07:28:14;;;;;;;9.47;1.40;;;;;;;12.16;79.60;98568.38;5077900;28;20039;-85
2023/05/16 07:30:43;;;;;;;11.33;2.07;;;;;;;13.13;79.92;98986.09;5094903;28;20031;-84
2023/05/16 07:33:08;;;;;;;11.48;1.92;;;;;;;13.50;76.49;98630.41;5094336;28;20031;-84
2023/05/16 07:35:33;;;;;;;8.13;1.80;;;;;;;13.58;75.28;98591.75;5078050;28;20020;-84
2023/05/16 07:37:59;;;;;;;8.10;1.70;;;;;;;12.44;74.85;98305.56;5108997;28;20032;-84
2023/05/16 07:40:27;;;;;;;7.47;1.37;;;;;;;11.78;78.57;98653.13;5078135;28;20032;-83
2023/05/16 07:42:53;;;;;;;11.52;1.60;;;;;;;11.78;81.08;98978.47;5077054;28;20067;-85
2023/05/16 07:45:18;;;;;;;14.70;2.27;;;;;;;11.60;82.02;99025.41;5078085;28;20119;-84
2023/05/16 07:47:45;;;;;;;17.60;1.90;;;;;;;11.80;83.76;99255.31;5091410;28;20503;-83
2023/05/16 07:50:10;;;;;;;11.38;1.67;;;;;;;11.54;84.79;99257.97;5074058;28;20035;-83
2023/05/16 07:52:36;;;;;;;9.83;2.00;;;;;;;11.61;85.98;99416.50;5069676;28;20040;-84
2023/05/16 07:55:02;;;;;;;12.63;1.95;;;;;;;11.23;87.06;99400.97;5093013;28;20123;-83
2023/05/16 07:57:27;;;;;;;17.73;2.05;;;;;;;12.52;86.80;99717.69;5094189;28;20040;-84
2023/05/16 07:59:53;;;;;;;13.45;2.97;;;;;;;13.25;83.89;99557.03;5082334;28;20020;-82
2023/05/16 08:02:19;;;;;;;8.50;1.70;;;;;;;13.61;81.88;99421.69;5094587;28;20038;-83
2023/05/16 08:04:44;;;;;;;8.10;1.67;;;;;;;14.46;81.05;99547.50;5095576;28;20023;-83
2023/05/16 08:07:10;;;;;;;5.73;1.83;;;;;;;14.76;79.46;99418.75;5094288;28;20380;-84
2023/05/16 08:09:35;;;;;;;7.03;1.67;;;;;;;15.24;76.17;99149.19;5102458;28;20103;-83
2023/05/16 08:12:02;;;;;;;27.50;3.27;;;;;;;14.74;74.33;98856.72;5087296;28;20876;-83
2023/05/16 08:14:30;;;;;;;10.82;1.73;;;;;;;15.00;74.31;98979.00;5076394;28;20099;-86
2023/05/16 08:16:59;;;;;;;7.55;1.75;;;;;;;14.45;73.52;98794.84;5093582;28;20566;-85
2023/05/16 08:19:25;;;;;;;5.80;1.15;;;;;;;14.44;72.66;98768.22;5077562;28;20467;-83
2023/05/16 08:21:50;;;;;;;5.25;1.30;;;;;;;13.66;72.38;98566.44;5091734;28;20118;-84
2023/05/16 08:24:16;;;;;;;8.67;1.53;;;;;;;12.90;72.29;98400.25;5077274;28;20016;-83
2023/05/16 08:26:41;;;;;;;9.07;1.73;;;;;;;14.10;71.15;98709.81;5094137;28;20081;-83
2023/05/16 08:29:06;;;;;;;9.77;2.07;;;;;;;14.76;68.40;98534.97;5093617;28;20019;-85
2023/05/16 08:31:32;;;;;;;5.30;1.40;;;;;;;14.87;67.21;98444.63;5076725;28;20051;-84
2023/05/16 08:33:57;;;;;;;9.57;1.43;;;;;;;13.62;66.27;98004.94;5092263;28;20077;-82
2023/05/16 08:36:22;;;;;;;6.03;1.50;;;;;;;13.16;70.13;98465.91;5075712;28;20042;-84
2023/05/16 08:38:51;;;;;;;6.00;1.60;;;;;;;13.12;71.74;98688.97;5092465;28;20419;-82
2023/05/16 08:41:16;;;;;;;6.95;1.60;;;;;;;13.45;72.37;98906.41;5075663;28;20985;-86
2023/05/16 08:43:42;;;;;;;14.07;1.90;;;;;;;14.45;71.82;99110.88;5092187;28;20032;-83
2023/05/16 08:46:07;;;;;;;17.03;2.80;;;;;;;14.64;71.04;98980.06;5075297;28;20028;-82
2023/05/16 08:48:33;;;;;;;9.37;1.90;;;;;;;14.82;70.42;98997.91;5072246;28;20274;-83
2023/05/16 08:51:01;;;;;;;9.10;1.83;;;;;;;15.46;68.72;98933.47;5106829;28;20613;-83
2023/05/16 08:53:34;;;;;;;18.20;2.88;;;;;;;14.63;67.05;98500.38;5088630;28;20115;-85
2023/05/16 08:56:00;;;;;;;10.38;2.17;;;;;;;14.02;69.19;98645.78;5081378;28;20031;-84
2023/05/16 08:58:26;;;;;;;9.20;1.50;;;;;;;14.81;67.42;98754.53;5089037;28;20066;-83
2023/05/16 09:00:52;;;;;;;4.28;1.88;;;;;;;14.63;64.93;98307.84;5079358;28;20044;-82
2023/05/16 09:03:19;;;;;;;9.07;1.42;;;;;;;13.85;64.17;97998.53;5075986;28;20026;-83
2023/05/16 09:05:45;;;;;;;7.60;2.28;;;;;;;13.64;64.99;98169.03;5089121;28;20058;-82
2023/05/16 09:08:11;;;;;;;6.82;1.92;;;;;;;12.83;64.34;97799.78;5092124;28;20798;-82
2023/05/16 09:10:36;;;;;;;6.80;1.73;;;;;;;12.33;65.72;97926.47;5092026;28;20069;-83
2023/05/16 09:13:01;;;;;;;6.50;1.40;;;;;;;13.08;66.29;98378.66;5074402;28;20035;-84
2023/05/16 09:15:31;;;;;;;9.93;1.80;;;;;;;14.81;65.06;98749.16;5075176;28;20024;-82
2023/05/16 09:17:59;;;;;;;14.35;1.65;;;;;;;15.79;62.12;98569.59;5091738;28;20031;-84
2023/05/16 09:20:25;;;;;;;5.07;1.15;;;;;;;16.08;61.21;98467.91;5097315;28;20020;-83
2023/05/16 09:22:59;;;;;;;10.63;1.75;;;;;;;14.33;60.48;97817.91;5091511;28;20056;-82
2023/05/16 09:25:30;;;;;;;8.60;1.48;;;;;;;14.22;62.05;98089.91;5076204;28;20040;-83
2023/05/16 09:27:56;;;;;;;6.78;1.45;;;;;;;14.30;62.37;98239.72;5092603;28;20032;-83
2023/05/16 09:30:25;;;;;;;;;;;;;;;14.74;60.36;98186.06;5093812;28;20106;-83
2023/05/16 09:32:52;;;;;;;5.93;1.20;;;;;;;15.80;59.82;98445.59;5075424;28;19936;-83
2023/05/16 09:35:20;;;;;;;11.18;1.98;;;;;;;17.00;58.00;98484.09;5074401;28;20103;-84
2023/05/16 09:37:52;;;;;;;6.10;1.20;;;;;;;16.65;55.33;97917.84;5079670;28;20503;-83
2023/05/16 09:40:19;;;;;;;7.07;1.55;;;;;;;17.42;55.96;98381.56;5072548;28;20035;-83
2023/05/16 09:42:45;;;;;;;8.20;1.30;;;;;;;17.97;54.36;98317.19;5075394;28;20434;-85
2023/05/16 09:45:12;;;;;;;4.83;1.73;;;;;;;18.21;53.51;98259.94;5076035;28;20028;-83
2023/05/16 09:47:45;;;;;;;7.35;1.50;;;;;;;18.23;51.59;97885.94;5109501;28;20084;-83
2023/05/16 09:50:12;;;;;;;6.18;1.33;;;;;;;18.73;53.28;98350.59;5102825;28;20032;-83
2023/05/16 09:52:38;;;;;;;6.72;1.52;;;;;;;16.77;52.15;97467.66;5092759;28;20028;-84
2023/05/16 09:55:07;;;;;;;4.50;1.43;;;;;;;17.70;53.15;98199.50;5076609;28;20019;-86
2023/05/16 09:57:35;;;;;;;5.90;1.30;;;;;;;17.00;53.16;97883.06;5076825;28;20030;-83
2023/05/16 10:00:07;;;;;;;9.07;1.77;;;;;;;15.62;51.92;97295.72;5093390;28;20084;-82
2023/05/16 10:02:33;;;;;;;6.80;1.48;;;;;;;15.29;53.94;97678.06;5093011;28;20032;-84
2023/05/16 10:04:59;;;;;;;10.88;1.88;;;;;;;15.98;53.56;97914.31;5112595;28;20026;-85
2023/05/16 10:07:25;;;;;;;3.53;1.10;;;;;;;16.71;51.60;97858.56;5093385;28;20035;-83
2023/05/16 10:09:51;;;;;;;15.95;2.00;;;;;;;17.09;51.09;97865.22;5076477;28;20059;-85
2023/05/16 10:12:21;;;;;;;7.60;1.95;;;;;;;17.27;51.04;97961.69;5093332;28;20110;-82
2023/05/16 10:14:49;;;;;;;5.43;1.38;;;;;;;17.70;51.35;98159.03;5092417;28;20034;-85
2023/05/16 10:17:15;;;;;;;8.95;2.20;;;;;;;15.11;51.89;97246.84;5077630;28;20028;-84
2023/05/16 10:19:41;;;;;;;14.70;2.00;;;;;;;14.02;55.10;97515.63;5095135;28;20041;-82
2023/05/16 10:22:08;;;;;;;;;;;;;;;13.77;56.12;97714.78;5094820;28;20032;-83
2023/05/16 10:24:45;;;;;;;7.80;1.42;;;;;;;14.75;56.93;98273.66;5090116;28;19912;-82
2023/05/16 10:27:11;;;;;;;10.40;2.20;;;;;;;15.53;55.82;98353.28;5084683;28;20024;-83
2023/05/16 10:29:38;;;;;;;15.55;2.42;;;;;;;16.20;55.24;98570.06;5092617;28;20042;-83
2023/05/16 10:32:05;;;;;;;7.40;1.35;;;;;;;16.73;53.75;98441.81;5092379;28;20062;-81
2023/05/16 10:34:31;;;;;;;9.13;1.50;;;;;;;17.22;52.82;98444.31;5092262;28;20036;-83
2023/05/16 10:36:57;;;;;;;14.02;2.10;;;;;;;17.78;53.22;98704.69;5112351;28;20029;-86
2023/05/16 10:39:23;;;;;;;;;;;;;;;18.24;53.21;98683.38;5080142;28;20047;-85
2023/05/16 10:41:48;;;;;;;;;;;;;;;17.07;52.70;98201.63;5097265;28;19907;-85
2023/05/16 10:44:17;;;;;;;5.07;1.50;;;;;;;15.60;53.16;97764.94;5100752;28;19911;-82
2023/05/16 10:46:42;;;;;;;11.10;1.50;;;;;;;15.14;55.85;98069.31;5077788;28;20031;-82
2023/05/16 10:49:20;;;;;;;6.37;1.40;;;;;;;14.43;57.16;98130.41;5078118;28;20027;-82
2023/05/16 10:52:01;;;;;;;10.73;1.60;;;;;;;14.15;57.30;98097.31;5077829;28;20285;-81
2023/05/16 10:54:34;;;;;;;9.25;1.33;;;;;;;13.66;57.90;98020.28;5113030;28;20100;-83
2023/05/16 10:57:03;;;;;;;7.72;1.75;;;;;;;13.81;58.54;98279.78;5094766;28;20479;-82
2023/05/16 10:59:40;;;;;;;11.32;2.30;;;;;;;14.62;57.43;98333.09;5095024;28;20386;-82
2023/05/16 11:02:31;;;;;;;8.77;2.10;;;;;;;14.46;57.74;98366.91;5085968;28;20047;-83
2023/05/16 11:04:58;;;;;;;13.30;2.50;;;;;;;14.47;58.23;98408.00;5094300;28;20032;-83
2023/05/16 11:07:25;;;;;;;6.82;1.40;;;;;;;14.53;57.81;98428.50;5078140;28;20047;-82
2023/05/16 11:10:09;;;;;;;9.63;2.05;;;;;;;14.21;59.48;98579.38;5094320;28;20035;-82